sensor_id;sensor_type;location;lat;lon;timestamp;P1;durP1;ratioP1;P2;durP2;ratioP2
79487;SDS011;68949;53.176;18.088;2024-03-07T00:00:10;23.80;;;8.90;;
79487;SDS011;68949;53.176;18.088;2024-03-07T00:03:04;26.20;;;10.40;;
79487;SDS011;68949;53.176;18.088;2024-03-07T00:05:30;23.60;;;9.60;;
79487;SDS011;68949;53.176;18.088;2024-03-07T00:07:58;23.30;;;9.60;;
79487;SDS011;68949;53.176;18.088;2024-03-07T00:10:25;21.70;;;8.70;;
79487;SDS011;68949;53.176;18.088;2024-03-07T00:12:52;20.50;;;9.40;;
79487;SDS011;68949;53.176;18.088;2024-03-07T00:15:19;25.50;;;8.60;;
79487;SDS011;68949;53.176;18.088;2024-03-07T00:17:47;21.20;;;8.40;;
79487;SDS011;68949;53.176;18.088;2024-03-07T00:20:15;23.90;;;8.50;;
79487;SDS011;68949;53.176;18.088;2024-03-07T00:22:45;17.90;;;6.60;;
79487;SDS011;68949;53.176;18.088;2024-03-07T00:25:12;23.80;;;8.90;;
79487;SDS011;68949;53.176;18.088;2024-03-07T00:27:45;25.20;;;9.60;;
79487;SDS011;68949;53.176;18.088;2024-03-07T00:30:12;20.70;;;7.80;;
79487;SDS011;68949;53.176;18.088;2024-03-07T00:32:45;29.50;;;9.10;;
79487;SDS011;68949;53.176;18.088;2024-03-07T00:35:15;18.90;;;7.70;;
79487;SDS011;68949;53.176;18.088;2024-03-07T00:37:42;17.90;;;7.60;;
79487;SDS011;68949;53.176;18.088;2024-03-07T00:40:09;20.40;;;8.20;;
79487;SDS011;68949;53.176;18.088;2024-03-07T00:42:36;22.30;;;8.20;;
79487;SDS011;68949;53.176;18.088;2024-03-07T00:45:04;21.40;;;7.80;;
79487;SDS011;68949;53.176;18.088;2024-03-07T00:47:32;17.90;;;7.40;;
79487;SDS011;68949;53.176;18.088;2024-03-07T00:49:59;16.50;;;6.50;;
79487;SDS011;68949;53.176;18.088;2024-03-07T00:52:25;29.50;;;9.90;;
79487;SDS011;68949;53.176;18.088;2024-03-07T00:54:52;26.20;;;9.20;;
79487;SDS011;68949;53.176;18.088;2024-03-07T00:57:19;21.00;;;9.00;;
79487;SDS011;68949;53.176;18.088;2024-03-07T00:59:45;24.30;;;9.60;;
79487;SDS011;68949;53.176;18.088;2024-03-07T01:02:12;19.40;;;8.20;;
79487;SDS011;68949;53.176;18.088;2024-03-07T01:04:39;23.50;;;8.40;;
79487;SDS011;68949;53.176;18.088;2024-03-07T01:07:06;22.80;;;9.20;;
79487;SDS011;68949;53.176;18.088;2024-03-07T01:09:33;22.30;;;8.20;;
79487;SDS011;68949;53.176;18.088;2024-03-07T01:12:01;19.60;;;8.20;;
79487;SDS011;68949;53.176;18.088;2024-03-07T01:14:31;22.20;;;8.60;;
79487;SDS011;68949;53.176;18.088;2024-03-07T01:16:59;24.80;;;9.00;;
79487;SDS011;68949;53.176;18.088;2024-03-07T01:19:25;23.20;;;9.80;;
79487;SDS011;68949;53.176;18.088;2024-03-07T01:21:52;25.50;;;9.10;;
79487;SDS011;68949;53.176;18.088;2024-03-07T01:24:19;23.80;;;9.60;;
79487;SDS011;68949;53.176;18.088;2024-03-07T01:26:46;25.60;;;9.70;;
79487;SDS011;68949;53.176;18.088;2024-03-07T01:29:14;23.90;;;10.20;;
79487;SDS011;68949;53.176;18.088;2024-03-07T01:31:40;20.60;;;9.50;;
79487;SDS011;68949;53.176;18.088;2024-03-07T01:34:07;22.90;;;9.90;;
79487;SDS011;68949;53.176;18.088;2024-03-07T01:36:34;22.60;;;9.80;;
79487;SDS011;68949;53.176;18.088;2024-03-07T01:39:01;21.00;;;9.60;;
79487;SDS011;68949;53.176;18.088;2024-03-07T01:41:30;24.80;;;8.40;;
79487;SDS011;68949;53.176;18.088;2024-03-07T01:43:56;28.50;;;10.30;;
79487;SDS011;68949;53.176;18.088;2024-03-07T01:46:23;25.40;;;10.70;;
79487;SDS011;68949;53.176;18.088;2024-03-07T01:48:51;26.10;;;11.10;;
79487;SDS011;68949;53.176;18.088;2024-03-07T01:51:18;26.20;;;11.00;;
79487;SDS011;68949;53.176;18.088;2024-03-07T01:53:45;29.50;;;11.30;;
79487;SDS011;68949;53.176;18.088;2024-03-07T01:56:12;18.90;;;8.80;;
79487;SDS011;68949;53.176;18.088;2024-03-07T01:58:40;24.80;;;9.80;;
79487;SDS011;68949;53.176;18.088;2024-03-07T02:01:07;21.40;;;9.20;;
79487;SDS011;68949;53.176;18.088;2024-03-07T02:03:34;26.40;;;10.30;;
79487;SDS011;68949;53.176;18.088;2024-03-07T02:06:03;26.40;;;10.40;;
79487;SDS011;68949;53.176;18.088;2024-03-07T02:08:30;28.70;;;10.90;;
79487;SDS011;68949;53.176;18.088;2024-03-07T02:10:58;22.40;;;10.60;;
79487;SDS011;68949;53.176;18.088;2024-03-07T02:13:25;31.30;;;10.90;;
79487;SDS011;68949;53.176;18.088;2024-03-07T02:15:52;22.40;;;9.20;;
79487;SDS011;68949;53.176;18.088;2024-03-07T02:18:22;22.20;;;8.70;;
79487;SDS011;68949;53.176;18.088;2024-03-07T02:20:49;17.70;;;7.40;;
79487;SDS011;68949;53.176;18.088;2024-03-07T02:23:15;28.10;;;11.40;;
79487;SDS011;68949;53.176;18.088;2024-03-07T02:25:42;26.50;;;11.40;;
79487;SDS011;68949;53.176;18.088;2024-03-07T02:28:09;28.60;;;9.90;;
79487;SDS011;68949;53.176;18.088;2024-03-07T02:30:35;24.00;;;10.60;;
79487;SDS011;68949;53.176;18.088;2024-03-07T02:33:03;21.90;;;8.90;;
79487;SDS011;68949;53.176;18.088;2024-03-07T02:35:33;22.30;;;9.30;;
79487;SDS011;68949;53.176;18.088;2024-03-07T02:38:06;16.30;;;7.40;;
79487;SDS011;68949;53.176;18.088;2024-03-07T02:40:33;21.00;;;7.90;;
79487;SDS011;68949;53.176;18.088;2024-03-07T02:43:00;21.40;;;8.60;;
79487;SDS011;68949;53.176;18.088;2024-03-07T02:45:26;14.10;;;5.40;;
79487;SDS011;68949;53.176;18.088;2024-03-07T02:47:53;23.80;;;10.60;;
79487;SDS011;68949;53.176;18.088;2024-03-07T02:50:20;20.00;;;6.90;;
79487;SDS011;68949;53.176;18.088;2024-03-07T02:52:51;23.20;;;9.40;;
79487;SDS011;68949;53.176;18.088;2024-03-07T02:55:19;26.60;;;11.00;;
79487;SDS011;68949;53.176;18.088;2024-03-07T02:57:46;25.90;;;9.00;;
79487;SDS011;68949;53.176;18.088;2024-03-07T03:00:14;23.40;;;9.60;;
79487;SDS011;68949;53.176;18.088;2024-03-07T03:02:47;25.00;;;9.60;;
79487;SDS011;68949;53.176;18.088;2024-03-07T03:05:17;21.00;;;7.70;;
79487;SDS011;68949;53.176;18.088;2024-03-07T03:07:45;24.50;;;9.30;;
79487;SDS011;68949;53.176;18.088;2024-03-07T03:10:22;22.20;;;8.60;;
79487;SDS011;68949;53.176;18.088;2024-03-07T03:12:55;14.50;;;6.80;;
79487;SDS011;68949;53.176;18.088;2024-03-07T03:15:25;25.70;;;10.30;;
79487;SDS011;68949;53.176;18.088;2024-03-07T03:17:52;20.20;;;5.80;;
79487;SDS011;68949;53.176;18.088;2024-03-07T03:20:19;23.30;;;8.70;;
79487;SDS011;68949;53.176;18.088;2024-03-07T03:22:52;21.00;;;9.90;;
79487;SDS011;68949;53.176;18.088;2024-03-07T03:25:20;21.90;;;9.30;;
79487;SDS011;68949;53.176;18.088;2024-03-07T03:27:47;20.80;;;7.50;;
79487;SDS011;68949;53.176;18.088;2024-03-07T03:30:15;26.50;;;10.50;;
79487;SDS011;68949;53.176;18.088;2024-03-07T03:32:46;29.00;;;11.50;;
79487;SDS011;68949;53.176;18.088;2024-03-07T03:35:14;22.30;;;8.10;;
79487;SDS011;68949;53.176;18.088;2024-03-07T03:37:42;21.50;;;9.40;;
79487;SDS011;68949;53.176;18.088;2024-03-07T03:40:11;18.40;;;8.30;;
79487;SDS011;68949;53.176;18.088;2024-03-07T03:42:42;18.30;;;7.40;;
79487;SDS011;68949;53.176;18.088;2024-03-07T03:45:10;20.20;;;8.50;;
79487;SDS011;68949;53.176;18.088;2024-03-07T03:47:41;24.80;;;8.90;;
79487;SDS011;68949;53.176;18.088;2024-03-07T03:50:11;25.50;;;9.80;;
79487;SDS011;68949;53.176;18.088;2024-03-07T03:52:41;23.90;;;10.20;;
79487;SDS011;68949;53.176;18.088;2024-03-07T03:55:09;27.70;;;11.30;;
79487;SDS011;68949;53.176;18.088;2024-03-07T03:57:36;30.40;;;10.90;;
79487;SDS011;68949;53.176;18.088;2024-03-07T04:00:06;28.10;;;11.00;;
79487;SDS011;68949;53.176;18.088;2024-03-07T04:02:44;29.30;;;11.40;;
79487;SDS011;68949;53.176;18.088;2024-03-07T04:05:15;24.30;;;10.30;;
79487;SDS011;68949;53.176;18.088;2024-03-07T04:07:43;26.40;;;8.50;;
79487;SDS011;68949;53.176;18.088;2024-03-07T04:10:11;22.70;;;10.10;;
79487;SDS011;68949;53.176;18.088;2024-03-07T04:12:40;20.30;;;6.70;;
79487;SDS011;68949;53.176;18.088;2024-03-07T04:15:12;25.10;;;10.10;;
79487;SDS011;68949;53.176;18.088;2024-03-07T04:17:42;25.00;;;10.10;;
79487;SDS011;68949;53.176;18.088;2024-03-07T04:20:11;25.50;;;8.00;;
79487;SDS011;68949;53.176;18.088;2024-03-07T04:22:38;27.80;;;10.30;;
79487;SDS011;68949;53.176;18.088;2024-03-07T04:25:08;24.10;;;9.70;;
79487;SDS011;68949;53.176;18.088;2024-03-07T04:27:38;24.50;;;10.60;;
79487;SDS011;68949;53.176;18.088;2024-03-07T04:30:07;21.00;;;8.80;;
79487;SDS011;68949;53.176;18.088;2024-03-07T04:32:38;24.50;;;9.80;;
79487;SDS011;68949;53.176;18.088;2024-03-07T04:35:06;25.10;;;10.50;;
79487;SDS011;68949;53.176;18.088;2024-03-07T04:37:37;24.90;;;10.60;;
79487;SDS011;68949;53.176;18.088;2024-03-07T04:40:05;24.90;;;8.90;;
79487;SDS011;68949;53.176;18.088;2024-03-07T04:42:46;18.00;;;8.00;;
79487;SDS011;68949;53.176;18.088;2024-03-07T04:45:15;19.10;;;8.20;;
79487;SDS011;68949;53.176;18.088;2024-03-07T04:47:44;22.00;;;9.00;;
79487;SDS011;68949;53.176;18.088;2024-03-07T04:50:12;19.10;;;7.00;;
79487;SDS011;68949;53.176;18.088;2024-03-07T04:52:40;22.80;;;8.30;;
79487;SDS011;68949;53.176;18.088;2024-03-07T04:55:08;24.20;;;8.90;;
79487;SDS011;68949;53.176;18.088;2024-03-07T04:57:37;26.60;;;10.30;;
79487;SDS011;68949;53.176;18.088;2024-03-07T05:00:29;28.40;;;9.90;;
79487;SDS011;68949;53.176;18.088;2024-03-07T05:02:57;22.80;;;8.10;;
79487;SDS011;68949;53.176;18.088;2024-03-07T05:05:24;20.50;;;8.70;;
79487;SDS011;68949;53.176;18.088;2024-03-07T05:07:52;21.20;;;8.70;;
79487;SDS011;68949;53.176;18.088;2024-03-07T05:10:20;19.90;;;8.30;;
79487;SDS011;68949;53.176;18.088;2024-03-07T05:12:47;29.70;;;10.70;;
79487;SDS011;68949;53.176;18.088;2024-03-07T05:15:14;25.90;;;10.00;;
79487;SDS011;68949;53.176;18.088;2024-03-07T05:17:41;20.60;;;8.20;;
79487;SDS011;68949;53.176;18.088;2024-03-07T05:20:09;24.80;;;9.10;;
79487;SDS011;68949;53.176;18.088;2024-03-07T05:22:37;20.40;;;8.10;;
79487;SDS011;68949;53.176;18.088;2024-03-07T05:25:30;15.50;;;6.20;;
79487;SDS011;68949;53.176;18.088;2024-03-07T05:27:57;12.90;;;4.90;;
79487;SDS011;68949;53.176;18.088;2024-03-07T05:30:23;30.50;;;11.40;;
79487;SDS011;68949;53.176;18.088;2024-03-07T05:32:52;25.20;;;9.90;;
79487;SDS011;68949;53.176;18.088;2024-03-07T05:35:18;27.80;;;10.10;;
79487;SDS011;68949;53.176;18.088;2024-03-07T05:37:46;21.40;;;9.10;;
79487;SDS011;68949;53.176;18.088;2024-03-07T05:40:13;20.90;;;8.50;;
79487;SDS011;68949;53.176;18.088;2024-03-07T05:42:40;19.60;;;8.00;;
79487;SDS011;68949;53.176;18.088;2024-03-07T05:45:08;22.70;;;9.50;;
79487;SDS011;68949;53.176;18.088;2024-03-07T05:47:35;27.20;;;9.90;;
79487;SDS011;68949;53.176;18.088;2024-03-07T05:50:02;26.50;;;9.50;;
79487;SDS011;68949;53.176;18.088;2024-03-07T05:52:30;23.50;;;9.50;;
79487;SDS011;68949;53.176;18.088;2024-03-07T05:54:56;23.20;;;9.20;;
79487;SDS011;68949;53.176;18.088;2024-03-07T05:57:23;26.50;;;10.30;;
79487;SDS011;68949;53.176;18.088;2024-03-07T05:59:50;26.20;;;9.50;;
79487;SDS011;68949;53.176;18.088;2024-03-07T06:02:16;26.30;;;10.30;;
79487;SDS011;68949;53.176;18.088;2024-03-07T06:04:43;27.40;;;9.60;;
79487;SDS011;68949;53.176;18.088;2024-03-07T06:07:10;25.00;;;11.50;;
79487;SDS011;68949;53.176;18.088;2024-03-07T06:09:37;24.30;;;9.00;;
79487;SDS011;68949;53.176;18.088;2024-03-07T06:12:04;32.20;;;11.40;;
79487;SDS011;68949;53.176;18.088;2024-03-07T06:14:34;27.50;;;10.90;;
79487;SDS011;68949;53.176;18.088;2024-03-07T06:17:01;25.80;;;10.40;;
79487;SDS011;68949;53.176;18.088;2024-03-07T06:19:28;24.50;;;9.30;;
79487;SDS011;68949;53.176;18.088;2024-03-07T06:21:54;26.10;;;10.30;;
79487;SDS011;68949;53.176;18.088;2024-03-07T06:24:22;25.20;;;9.20;;
79487;SDS011;68949;53.176;18.088;2024-03-07T06:26:49;23.80;;;9.10;;
79487;SDS011;68949;53.176;18.088;2024-03-07T06:29:26;20.90;;;8.30;;
79487;SDS011;68949;53.176;18.088;2024-03-07T06:31:54;26.10;;;11.10;;
79487;SDS011;68949;53.176;18.088;2024-03-07T06:34:21;26.40;;;10.00;;
79487;SDS011;68949;53.176;18.088;2024-03-07T06:36:47;19.40;;;7.70;;
79487;SDS011;68949;53.176;18.088;2024-03-07T06:39:14;20.60;;;6.90;;
79487;SDS011;68949;53.176;18.088;2024-03-07T06:41:41;20.40;;;7.40;;
79487;SDS011;68949;53.176;18.088;2024-03-07T06:44:08;19.00;;;6.80;;
79487;SDS011;68949;53.176;18.088;2024-03-07T06:46:36;22.40;;;10.10;;
79487;SDS011;68949;53.176;18.088;2024-03-07T06:49:03;21.80;;;9.00;;
79487;SDS011;68949;53.176;18.088;2024-03-07T06:51:32;22.70;;;9.00;;
79487;SDS011;68949;53.176;18.088;2024-03-07T06:53:59;24.50;;;9.30;;
79487;SDS011;68949;53.176;18.088;2024-03-07T06:56:26;27.90;;;9.80;;
79487;SDS011;68949;53.176;18.088;2024-03-07T06:58:52;26.20;;;10.80;;
79487;SDS011;68949;53.176;18.088;2024-03-07T07:01:19;27.10;;;11.40;;
79487;SDS011;68949;53.176;18.088;2024-03-07T07:03:46;22.00;;;9.40;;
79487;SDS011;68949;53.176;18.088;2024-03-07T07:06:14;17.70;;;7.90;;
79487;SDS011;68949;53.176;18.088;2024-03-07T07:08:41;22.20;;;8.20;;
79487;SDS011;68949;53.176;18.088;2024-03-07T07:11:08;20.70;;;8.40;;
79487;SDS011;68949;53.176;18.088;2024-03-07T07:13:35;26.10;;;10.10;;
79487;SDS011;68949;53.176;18.088;2024-03-07T07:16:03;23.20;;;11.20;;
79487;SDS011;68949;53.176;18.088;2024-03-07T07:18:30;28.90;;;11.80;;
79487;SDS011;68949;53.176;18.088;2024-03-07T07:20:56;21.60;;;9.20;;
79487;SDS011;68949;53.176;18.088;2024-03-07T07:23:24;20.80;;;8.40;;
79487;SDS011;68949;53.176;18.088;2024-03-07T07:25:51;19.50;;;7.30;;
79487;SDS011;68949;53.176;18.088;2024-03-07T07:28:18;22.80;;;9.20;;
79487;SDS011;68949;53.176;18.088;2024-03-07T07:30:44;21.40;;;9.90;;
79487;SDS011;68949;53.176;18.088;2024-03-07T07:33:12;21.20;;;8.70;;
79487;SDS011;68949;53.176;18.088;2024-03-07T07:35:40;22.50;;;9.50;;
79487;SDS011;68949;53.176;18.088;2024-03-07T07:38:07;18.20;;;6.90;;
79487;SDS011;68949;53.176;18.088;2024-03-07T07:40:36;19.80;;;8.70;;
79487;SDS011;68949;53.176;18.088;2024-03-07T07:43:03;20.20;;;8.30;;
79487;SDS011;68949;53.176;18.088;2024-03-07T07:45:30;23.80;;;11.10;;
79487;SDS011;68949;53.176;18.088;2024-03-07T07:47:58;23.80;;;10.00;;
79487;SDS011;68949;53.176;18.088;2024-03-07T07:50:26;21.80;;;8.20;;
79487;SDS011;68949;53.176;18.088;2024-03-07T07:52:55;20.50;;;8.70;;
79487;SDS011;68949;53.176;18.088;2024-03-07T07:55:27;21.20;;;8.50;;
79487;SDS011;68949;53.176;18.088;2024-03-07T07:57:59;17.80;;;7.50;;
79487;SDS011;68949;53.176;18.088;2024-03-07T08:00:28;21.50;;;9.50;;
79487;SDS011;68949;53.176;18.088;2024-03-07T08:03:03;29.50;;;10.40;;
79487;SDS011;68949;53.176;18.088;2024-03-07T08:05:35;27.10;;;11.30;;
79487;SDS011;68949;53.176;18.088;2024-03-07T08:08:05;27.40;;;10.80;;
79487;SDS011;68949;53.176;18.088;2024-03-07T08:10:34;27.40;;;12.50;;
79487;SDS011;68949;53.176;18.088;2024-03-07T08:13:04;27.50;;;11.90;;
79487;SDS011;68949;53.176;18.088;2024-03-07T08:15:35;29.40;;;11.70;;
79487;SDS011;68949;53.176;18.088;2024-03-07T08:18:02;20.80;;;9.40;;
79487;SDS011;68949;53.176;18.088;2024-03-07T08:20:35;26.90;;;11.80;;
79487;SDS011;68949;53.176;18.088;2024-03-07T08:23:02;25.10;;;11.20;;
79487;SDS011;68949;53.176;18.088;2024-03-07T08:25:29;16.00;;;7.90;;
79487;SDS011;68949;53.176;18.088;2024-03-07T08:27:57;28.40;;;11.30;;
79487;SDS011;68949;53.176;18.088;2024-03-07T08:30:25;15.20;;;6.60;;
79487;SDS011;68949;53.176;18.088;2024-03-07T08:32:56;23.40;;;9.60;;
79487;SDS011;68949;53.176;18.088;2024-03-07T08:35:23;26.30;;;10.80;;
79487;SDS011;68949;53.176;18.088;2024-03-07T08:37:53;19.00;;;9.00;;
79487;SDS011;68949;53.176;18.088;2024-03-07T08:40:23;25.10;;;10.80;;
79487;SDS011;68949;53.176;18.088;2024-03-07T08:43:00;24.50;;;10.30;;
79487;SDS011;68949;53.176;18.088;2024-03-07T08:45:28;21.40;;;9.60;;
79487;SDS011;68949;53.176;18.088;2024-03-07T08:47:59;21.00;;;9.80;;
79487;SDS011;68949;53.176;18.088;2024-03-07T08:50:26;20.40;;;9.00;;
79487;SDS011;68949;53.176;18.088;2024-03-07T08:52:54;22.70;;;9.80;;
79487;SDS011;68949;53.176;18.088;2024-03-07T08:55:25;22.40;;;10.30;;
79487;SDS011;68949;53.176;18.088;2024-03-07T08:57:52;22.00;;;9.70;;
79487;SDS011;68949;53.176;18.088;2024-03-07T09:00:20;21.90;;;9.70;;
79487;SDS011;68949;53.176;18.088;2024-03-07T09:02:55;21.80;;;9.10;;
79487;SDS011;68949;53.176;18.088;2024-03-07T09:05:26;21.90;;;9.80;;
79487;SDS011;68949;53.176;18.088;2024-03-07T09:07:54;20.30;;;9.10;;
79487;SDS011;68949;53.176;18.088;2024-03-07T09:10:22;23.00;;;10.60;;
79487;SDS011;68949;53.176;18.088;2024-03-07T09:12:51;18.00;;;7.70;;
79487;SDS011;68949;53.176;18.088;2024-03-07T09:15:19;21.20;;;9.60;;
79487;SDS011;68949;53.176;18.088;2024-03-07T09:17:48;17.40;;;8.00;;
79487;SDS011;68949;53.176;18.088;2024-03-07T09:20:15;19.70;;;7.80;;
79487;SDS011;68949;53.176;18.088;2024-03-07T09:22:43;20.70;;;8.70;;
79487;SDS011;68949;53.176;18.088;2024-03-07T09:25:11;21.90;;;10.20;;
79487;SDS011;68949;53.176;18.088;2024-03-07T09:27:40;19.90;;;8.40;;
79487;SDS011;68949;53.176;18.088;2024-03-07T09:30:11;17.90;;;8.20;;
79487;SDS011;68949;53.176;18.088;2024-03-07T09:32:41;19.00;;;9.20;;
79487;SDS011;68949;53.176;18.088;2024-03-07T09:35:09;20.60;;;8.70;;
79487;SDS011;68949;53.176;18.088;2024-03-07T09:37:41;18.40;;;8.00;;
79487;SDS011;68949;53.176;18.088;2024-03-07T09:40:09;20.20;;;10.00;;
79487;SDS011;68949;53.176;18.088;2024-03-07T09:42:45;18.10;;;8.00;;
79487;SDS011;68949;53.176;18.088;2024-03-07T09:45:16;18.60;;;8.30;;
79487;SDS011;68949;53.176;18.088;2024-03-07T09:47:48;23.10;;;10.60;;
79487;SDS011;68949;53.176;18.088;2024-03-07T09:50:19;20.50;;;9.10;;
79487;SDS011;68949;53.176;18.088;2024-03-07T09:52:52;18.10;;;7.70;;
79487;SDS011;68949;53.176;18.088;2024-03-07T09:55:19;16.90;;;7.40;;
79487;SDS011;68949;53.176;18.088;2024-03-07T09:57:48;18.20;;;7.70;;
79487;SDS011;68949;53.176;18.088;2024-03-07T10:00:17;17.50;;;7.80;;
79487;SDS011;68949;53.176;18.088;2024-03-07T10:03:07;20.90;;;8.70;;
79487;SDS011;68949;53.176;18.088;2024-03-07T10:05:35;20.60;;;8.60;;
79487;SDS011;68949;53.176;18.088;2024-03-07T10:08:04;17.60;;;7.30;;
79487;SDS011;68949;53.176;18.088;2024-03-07T10:10:31;16.90;;;6.90;;
79487;SDS011;68949;53.176;18.088;2024-03-07T10:12:58;16.80;;;8.00;;
79487;SDS011;68949;53.176;18.088;2024-03-07T10:15:32;16.50;;;7.30;;
79487;SDS011;68949;53.176;18.088;2024-03-07T10:18:00;12.80;;;6.30;;
79487;SDS011;68949;53.176;18.088;2024-03-07T10:20:27;17.70;;;7.80;;
79487;SDS011;68949;53.176;18.088;2024-03-07T10:22:54;17.10;;;7.20;;
79487;SDS011;68949;53.176;18.088;2024-03-07T10:25:22;17.50;;;7.50;;
79487;SDS011;68949;53.176;18.088;2024-03-07T10:27:54;17.40;;;7.60;;
79487;SDS011;68949;53.176;18.088;2024-03-07T10:30:21;16.30;;;7.50;;
79487;SDS011;68949;53.176;18.088;2024-03-07T10:32:52;19.10;;;8.60;;
79487;SDS011;68949;53.176;18.088;2024-03-07T10:35:22;14.60;;;5.70;;
79487;SDS011;68949;53.176;18.088;2024-03-07T10:37:55;17.20;;;7.70;;
79487;SDS011;68949;53.176;18.088;2024-03-07T10:40:23;14.50;;;6.60;;
79487;SDS011;68949;53.176;18.088;2024-03-07T10:42:55;15.20;;;6.90;;
79487;SDS011;68949;53.176;18.088;2024-03-07T10:45:28;18.40;;;7.40;;
79487;SDS011;68949;53.176;18.088;2024-03-07T10:47:57;15.60;;;8.00;;
79487;SDS011;68949;53.176;18.088;2024-03-07T10:53:57;16.60;;;7.70;;
79487;SDS011;68949;53.176;18.088;2024-03-07T10:59:38;13.90;;;6.10;;
79487;SDS011;68949;53.176;18.088;2024-03-07T11:02:31;16.10;;;6.80;;
79487;SDS011;68949;53.176;18.088;2024-03-07T11:05:05;19.30;;;7.70;;
79487;SDS011;68949;53.176;18.088;2024-03-07T11:07:39;16.90;;;7.60;;
79487;SDS011;68949;53.176;18.088;2024-03-07T11:10:11;17.20;;;7.50;;
79487;SDS011;68949;53.176;18.088;2024-03-07T11:12:51;14.90;;;7.20;;
79487;SDS011;68949;53.176;18.088;2024-03-07T11:15:19;14.90;;;7.40;;
79487;SDS011;68949;53.176;18.088;2024-03-07T11:17:48;15.70;;;6.30;;
79487;SDS011;68949;53.176;18.088;2024-03-07T11:20:19;18.50;;;7.80;;
79487;SDS011;68949;53.176;18.088;2024-03-07T11:22:47;14.00;;;7.00;;
79487;SDS011;68949;53.176;18.088;2024-03-07T11:25:21;19.10;;;7.20;;
79487;SDS011;68949;53.176;18.088;2024-03-07T11:30:23;16.40;;;6.90;;
79487;SDS011;68949;53.176;18.088;2024-03-07T11:32:52;16.30;;;7.10;;
79487;SDS011;68949;53.176;18.088;2024-03-07T11:35:21;17.60;;;8.10;;
79487;SDS011;68949;53.176;18.088;2024-03-07T11:37:59;18.10;;;7.60;;
79487;SDS011;68949;53.176;18.088;2024-03-07T11:42:53;18.00;;;8.40;;
79487;SDS011;68949;53.176;18.088;2024-03-07T11:45:23;14.70;;;6.50;;
79487;SDS011;68949;53.176;18.088;2024-03-07T11:47:56;14.70;;;6.60;;
79487;SDS011;68949;53.176;18.088;2024-03-07T11:50:33;18.60;;;8.30;;
79487;SDS011;68949;53.176;18.088;2024-03-07T11:53:04;15.10;;;6.80;;
79487;SDS011;68949;53.176;18.088;2024-03-07T11:55:33;16.90;;;7.80;;
79487;SDS011;68949;53.176;18.088;2024-03-07T11:58:12;17.00;;;7.20;;
79487;SDS011;68949;53.176;18.088;2024-03-07T12:00:41;14.60;;;7.10;;
79487;SDS011;68949;53.176;18.088;2024-03-07T12:03:20;15.60;;;7.60;;
79487;SDS011;68949;53.176;18.088;2024-03-07T12:05:48;17.60;;;7.80;;
79487;SDS011;68949;53.176;18.088;2024-03-07T12:08:15;18.10;;;8.00;;
79487;SDS011;68949;53.176;18.088;2024-03-07T12:10:43;18.00;;;8.60;;
79487;SDS011;68949;53.176;18.088;2024-03-07T12:13:12;17.50;;;7.40;;
79487;SDS011;68949;53.176;18.088;2024-03-07T12:15:42;19.10;;;9.80;;
79487;SDS011;68949;53.176;18.088;2024-03-07T12:18:10;14.60;;;7.10;;
79487;SDS011;68949;53.176;18.088;2024-03-07T12:20:41;17.70;;;8.50;;
79487;SDS011;68949;53.176;18.088;2024-03-07T12:23:13;18.60;;;7.70;;
79487;SDS011;68949;53.176;18.088;2024-03-07T12:25:40;19.10;;;8.20;;
79487;SDS011;68949;53.176;18.088;2024-03-07T12:28:11;19.20;;;7.60;;
79487;SDS011;68949;53.176;18.088;2024-03-07T12:30:54;16.60;;;7.20;;
79487;SDS011;68949;53.176;18.088;2024-03-07T12:33:23;18.70;;;9.00;;
79487;SDS011;68949;53.176;18.088;2024-03-07T12:35:54;19.60;;;9.50;;
79487;SDS011;68949;53.176;18.088;2024-03-07T12:38:32;19.40;;;9.10;;
79487;SDS011;68949;53.176;18.088;2024-03-07T12:41:06;17.40;;;8.70;;
79487;SDS011;68949;53.176;18.088;2024-03-07T12:43:35;18.20;;;8.30;;
79487;SDS011;68949;53.176;18.088;2024-03-07T12:46:02;16.70;;;8.40;;
79487;SDS011;68949;53.176;18.088;2024-03-07T12:48:31;18.90;;;9.20;;
79487;SDS011;68949;53.176;18.088;2024-03-07T12:50:58;18.70;;;7.30;;
79487;SDS011;68949;53.176;18.088;2024-03-07T12:53:28;15.70;;;7.20;;
79487;SDS011;68949;53.176;18.088;2024-03-07T12:55:56;16.90;;;7.90;;
79487;SDS011;68949;53.176;18.088;2024-03-07T12:58:22;22.10;;;8.60;;
79487;SDS011;68949;53.176;18.088;2024-03-07T13:00:53;15.50;;;6.30;;
79487;SDS011;68949;53.176;18.088;2024-03-07T13:03:27;16.70;;;7.50;;
79487;SDS011;68949;53.176;18.088;2024-03-07T13:05:57;15.80;;;7.80;;
79487;SDS011;68949;53.176;18.088;2024-03-07T13:08:27;14.60;;;6.10;;
79487;SDS011;68949;53.176;18.088;2024-03-07T13:10:57;18.20;;;6.70;;
79487;SDS011;68949;53.176;18.088;2024-03-07T13:13:25;14.00;;;5.90;;
79487;SDS011;68949;53.176;18.088;2024-03-07T13:15:52;17.50;;;8.70;;
79487;SDS011;68949;53.176;18.088;2024-03-07T13:18:21;18.80;;;8.50;;
79487;SDS011;68949;53.176;18.088;2024-03-07T13:20:48;14.40;;;6.00;;
79487;SDS011;68949;53.176;18.088;2024-03-07T13:23:20;18.80;;;7.90;;
79487;SDS011;68949;53.176;18.088;2024-03-07T13:25:48;15.50;;;7.30;;
79487;SDS011;68949;53.176;18.088;2024-03-07T13:28:15;19.50;;;9.00;;
79487;SDS011;68949;53.176;18.088;2024-03-07T13:30:50;15.60;;;6.60;;
79487;SDS011;68949;53.176;18.088;2024-03-07T13:33:23;12.50;;;5.00;;
79487;SDS011;68949;53.176;18.088;2024-03-07T13:35:50;19.60;;;8.20;;
79487;SDS011;68949;53.176;18.088;2024-03-07T13:38:18;20.30;;;10.00;;
79487;SDS011;68949;53.176;18.088;2024-03-07T13:40:47;14.90;;;6.70;;
79487;SDS011;68949;53.176;18.088;2024-03-07T13:43:15;15.50;;;7.00;;
79487;SDS011;68949;53.176;18.088;2024-03-07T13:45:45;15.10;;;7.40;;
79487;SDS011;68949;53.176;18.088;2024-03-07T13:48:14;13.50;;;7.00;;
79487;SDS011;68949;53.176;18.088;2024-03-07T13:50:43;15.90;;;7.00;;
79487;SDS011;68949;53.176;18.088;2024-03-07T13:53:15;21.10;;;8.40;;
79487;SDS011;68949;53.176;18.088;2024-03-07T14:02:18;14.60;;;6.70;;
79487;SDS011;68949;53.176;18.088;2024-03-07T14:05:54;13.10;;;6.00;;
79487;SDS011;68949;53.176;18.088;2024-03-07T14:08:43;14.50;;;6.50;;
79487;SDS011;68949;53.176;18.088;2024-03-07T14:24:06;15.90;;;7.10;;
79487;SDS011;68949;53.176;18.088;2024-03-07T14:32:38;15.00;;;6.40;;
79487;SDS011;68949;53.176;18.088;2024-03-07T14:41:17;14.60;;;6.40;;
79487;SDS011;68949;53.176;18.088;2024-03-07T14:43:48;14.70;;;6.20;;
79487;SDS011;68949;53.176;18.088;2024-03-07T14:46:16;15.60;;;4.30;;
79487;SDS011;68949;53.176;18.088;2024-03-07T14:48:43;13.20;;;5.50;;
79487;SDS011;68949;53.176;18.088;2024-03-07T14:51:11;10.30;;;4.60;;
79487;SDS011;68949;53.176;18.088;2024-03-07T14:53:40;12.20;;;5.80;;
79487;SDS011;68949;53.176;18.088;2024-03-07T14:56:08;13.10;;;5.60;;
79487;SDS011;68949;53.176;18.088;2024-03-07T14:58:37;11.80;;;4.50;;
79487;SDS011;68949;53.176;18.088;2024-03-07T15:01:05;12.10;;;5.60;;
79487;SDS011;68949;53.176;18.088;2024-03-07T15:03:33;14.90;;;6.10;;
79487;SDS011;68949;53.176;18.088;2024-03-07T15:06:00;12.30;;;4.90;;
79487;SDS011;68949;53.176;18.088;2024-03-07T15:08:28;12.60;;;5.50;;
79487;SDS011;68949;53.176;18.088;2024-03-07T15:11:09;13.40;;;5.60;;
79487;SDS011;68949;53.176;18.088;2024-03-07T15:13:43;13.20;;;5.30;;